メインページ
METAR-TAF:

METAR-TAF

空港 :

アムステルダム, オランダ

アムステルダム・スキポール空港

緯度: 52-18N, 経度: 004-46E, 海抜: -4m

現時点の気象観測

当レポートは30分前の05:55(UTC)に作成
西の風 18kt
気温 5°C
湿度 75%
気圧 988 hPa
視程10km以上
高度2300ftの雲はほとんどない

METAR: EHAM 140555Z 27018KT 9999 FEW023 05/01 Q0988 TEMPO 6000 SHRASN SCT020CB

時間: 07:25 (06:25 UTC)

予報

当レポートは1時間4分前の05:21(UTC)に作成
予報は14日の 06時(UTC)から 15日の 12時(UTC)まで有効
西の風 16kt
視程10km以上
高度2000ftの雲は散在している
14日の 06時(UTC)から 14日の 15時(UTC)まで一時的に
西の風 20kt、最大30ktの突風を伴う
視程: 4500m
高度1800ftの雲は散在している, 積乱雲.
高度2000ftの千切れ雲あり
にわか雨, 雪, 氷霰/雪霰
14日の 13時(UTC)から 14日の 16時(UTC)まで徐々に
南/南西の風 10kt
確率 40% :
14日の 15時(UTC)から 15日の 12時(UTC)まで一時的に
西/南西の風 13kt、最大23ktの突風を伴う
視程: 4500m
高度1800ftの雲は散在している, 積乱雲.
高度2000ftの千切れ雲あり
にわか雨, 雪, 氷霰/雪霰
14日の 18時(UTC)から 14日の 21時(UTC)まで徐々に
視程: 6000m
高度1200ftの千切れ雲あり
14日の 21時(UTC)から 15日の 09時(UTC)まで一時的に
視程: 2000m
高度500ftの千切れ雲あり

TAF: EHAM 140521Z 1406/1512 26016KT 9999 SCT020 TEMPO 1406/1415 27020G30KT 4500 SHRASNGS SCT018CB BKN020 BECMG 1413/1416 21010KT PROB40 TEMPO 1415/1512 24013G23KT 4500 SHRASNGS SCT018CB BKN020 BECMG 1418/1421 6000 BKN012 TEMPO 1421/1509 2000 BR BKN005

4,000以上の空港の気象観測と天気予報(METAR報とTAF報)

利用可能な観測所は地図上に黄色い丸と赤い丸で示す。

丸の上にカーソルを重ねると観測所名を参照できる。

次にクリックすると気象観測と天気予報を参照できる。

マップの切り替え:黒色「×」印の緑ボタンをクリックして拡大、「-」印の緑ボタンをクリックして縮小、緑色の三角印をクリックして隣りの地図に切り替え


METAR-TAF: